createdAt,value
2022-10-08T00:02:01.181Z,9.53
2022-10-08T00:04:45.878Z,9.53
2022-10-08T00:07:33.238Z,9.46
2022-10-08T00:10:07.621Z,9.47
2022-10-08T00:12:35.688Z,9.44
2022-10-08T00:15:03.844Z,9.37
2022-10-08T00:17:31.623Z,9.37
2022-10-08T00:20:01.341Z,9.35
2022-10-08T00:22:29.270Z,9.38
2022-10-08T00:24:57.651Z,9.41
2022-10-08T00:27:26.416Z,9.36
2022-10-08T00:29:54.112Z,9.21
2022-10-08T00:32:21.909Z,9.31
2022-10-08T00:34:50.294Z,9.28
2022-10-08T00:37:20.169Z,9.30
2022-10-08T00:39:47.980Z,9.32
2022-10-08T00:42:16.385Z,9.35
2022-10-08T00:44:56.389Z,9.34
2022-10-08T00:47:35.119Z,9.36
2022-10-08T00:50:06.189Z,9.35
2022-10-08T00:52:38.650Z,9.40
2022-10-08T00:55:07.865Z,9.39
2022-10-08T00:57:37.484Z,9.41
2022-10-08T01:00:09.379Z,9.28
2022-10-08T01:02:37.801Z,9.17
2022-10-08T01:05:06.805Z,9.09
2022-10-08T01:07:43.128Z,9.07
2022-10-08T01:10:20.228Z,9.04
2022-10-08T01:12:59.737Z,9.03
2022-10-08T01:15:35.366Z,8.91
2022-10-08T01:18:11.421Z,9.04
2022-10-08T01:20:46.969Z,9.05
2022-10-08T01:23:34.748Z,9.04
2022-10-08T01:26:12.955Z,8.97
2022-10-08T01:28:45.609Z,8.91
2022-10-08T01:31:19.725Z,8.96
2022-10-08T01:33:53.808Z,9.09
2022-10-08T01:36:24.457Z,9.06
2022-10-08T01:38:55.636Z,8.97
2022-10-08T01:41:27.271Z,8.82
2022-10-08T01:44:02.491Z,8.80
2022-10-08T01:46:33.837Z,8.56
2022-10-08T01:49:07.505Z,8.73
2022-10-08T01:51:40.784Z,8.74
2022-10-08T01:54:14.217Z,8.78
2022-10-08T01:56:47.034Z,8.78
2022-10-08T01:59:20.875Z,8.76
2022-10-08T02:01:56.062Z,8.84
2022-10-08T02:04:35.851Z,8.85
2022-10-08T02:07:08.266Z,8.89
2022-10-08T02:09:39.927Z,8.94
2022-10-08T02:12:09.110Z,8.99
2022-10-08T02:14:41.423Z,8.89
2022-10-08T02:17:24.309Z,9.00
2022-10-08T02:19:57.620Z,8.97
2022-10-08T02:22:30.301Z,9.05
2022-10-08T02:25:01.952Z,9.06
2022-10-08T02:27:36.258Z,8.99
2022-10-08T02:30:09.665Z,9.00
2022-10-08T02:32:43.513Z,8.91
2022-10-08T02:35:17.482Z,8.81
2022-10-08T02:37:54.312Z,8.80
2022-10-08T02:40:24.988Z,8.68
2022-10-08T02:42:59.062Z,8.62
2022-10-08T02:45:33.319Z,8.61
2022-10-08T02:48:06.621Z,8.55
2022-10-08T02:50:37.450Z,8.52
2022-10-08T02:53:05.835Z,8.51
2022-10-08T02:55:40.485Z,8.55
2022-10-08T02:58:11.710Z,8.55
2022-10-08T03:00:45.390Z,8.61
2022-10-08T03:03:16.749Z,8.60
2022-10-08T03:05:45.153Z,8.73
2022-10-08T03:08:15.985Z,8.73
2022-10-08T03:10:45.049Z,8.50
2022-10-08T03:13:13.705Z,8.56
2022-10-08T03:15:44.601Z,8.42
2022-10-08T03:18:13.516Z,8.28
2022-10-08T03:20:45.481Z,8.25
2022-10-08T03:23:16.739Z,8.18
2022-10-08T03:25:44.592Z,8.18
2022-10-08T03:28:12.861Z,8.18
2022-10-08T03:30:41.169Z,8.26
2022-10-08T03:33:10.268Z,8.36
2022-10-08T03:35:37.972Z,8.24
2022-10-08T03:38:05.963Z,8.17
2022-10-08T03:40:33.742Z,8.15
2022-10-08T03:43:01.495Z,8.04
2022-10-08T03:45:29.560Z,8.01
2022-10-08T03:47:57.267Z,8.02
2022-10-08T03:50:26.522Z,8.04
2022-10-08T03:52:54.903Z,7.80
2022-10-08T03:55:22.632Z,7.76
2022-10-08T03:57:50.318Z,7.77
2022-10-08T04:00:18.530Z,7.78
2022-10-08T04:02:50.839Z,7.63
2022-10-08T04:05:19.401Z,7.60
2022-10-08T04:07:48.549Z,7.59
2022-10-08T04:10:16.628Z,7.65
2022-10-08T04:12:44.972Z,7.66
2022-10-08T04:15:13.031Z,7.71
2022-10-08T04:17:41.739Z,7.57
2022-10-08T04:20:10.793Z,7.66
2022-10-08T04:22:38.506Z,7.68
2022-10-08T04:25:08.035Z,7.59
2022-10-08T04:27:35.997Z,7.69
2022-10-08T04:30:03.977Z,7.74
2022-10-08T04:32:31.754Z,7.75
2022-10-08T04:34:59.737Z,7.81
2022-10-08T04:37:27.478Z,7.82
2022-10-08T04:39:55.189Z,7.84
2022-10-08T04:42:24.666Z,7.79
2022-10-08T04:44:52.401Z,7.82
2022-10-08T04:47:20.202Z,7.84
2022-10-08T04:49:48.330Z,7.67
2022-10-08T04:52:17.229Z,7.75
2022-10-08T04:54:44.932Z,7.62
2022-10-08T04:57:12.933Z,7.61
2022-10-08T05:00:05.859Z,7.60
2022-10-08T05:02:30.627Z,7.50
2022-10-08T05:04:58.335Z,7.46
2022-10-08T05:07:26.073Z,7.49
2022-10-08T05:09:55.882Z,7.50
2022-10-08T05:12:23.637Z,7.48
2022-10-08T05:14:52.687Z,7.57
2022-10-08T05:17:20.685Z,7.65
2022-10-08T05:19:48.434Z,7.69
2022-10-08T05:22:16.221Z,7.82
2022-10-08T05:24:44.285Z,7.89
2022-10-08T05:27:12.053Z,7.95
2022-10-08T05:29:39.820Z,8.06
2022-10-08T05:32:09.194Z,8.21
2022-10-08T05:34:36.981Z,8.35
2022-10-08T05:37:04.974Z,8.45
2022-10-08T05:39:33.042Z,8.59
2022-10-08T05:42:00.973Z,8.60
2022-10-08T05:44:28.726Z,8.80
2022-10-08T05:46:56.920Z,8.97
2022-10-08T05:49:40.245Z,9.03
2022-10-08T05:52:08.503Z,9.06
2022-10-08T05:54:36.194Z,9.08
2022-10-08T05:57:04.015Z,9.16
2022-10-08T05:59:32.126Z,9.36
2022-10-08T06:02:00.039Z,9.47
2022-10-08T06:04:27.928Z,9.69
2022-10-08T06:06:57.265Z,9.69
2022-10-08T06:09:24.965Z,9.70
2022-10-08T06:11:54.797Z,9.63
2022-10-08T06:14:24.274Z,9.76
2022-10-08T06:16:52.055Z,9.95
2022-10-08T06:19:19.964Z,10.03
2022-10-08T06:21:48.687Z,10.19
2022-10-08T06:24:17.856Z,10.21
2022-10-08T06:26:45.771Z,10.32
2022-10-08T06:29:16.183Z,10.43
2022-10-08T06:31:45.094Z,10.43
2022-10-08T06:34:13.040Z,10.47
2022-10-08T06:36:41.098Z,10.70
2022-10-08T06:39:12.288Z,10.77
2022-10-08T06:41:41.400Z,10.81
2022-10-08T06:44:12.217Z,10.87
2022-10-08T06:46:40.176Z,10.86
2022-10-08T06:49:08.294Z,10.93
2022-10-08T06:51:36.350Z,10.94
2022-10-08T06:54:07.848Z,11.08
2022-10-08T06:56:36.581Z,11.17
2022-10-08T06:59:07.252Z,11.22
2022-10-08T07:01:36.240Z,11.24
2022-10-08T07:04:06.637Z,11.43
2022-10-08T07:09:30.870Z,11.46
2022-10-08T07:18:21.810Z,11.66
2022-10-08T07:20:55.652Z,11.80
2022-10-08T07:23:23.436Z,11.96
2022-10-08T07:25:58.873Z,12.02
2022-10-08T07:28:28.592Z,12.17
2022-10-08T07:30:56.696Z,12.19
2022-10-08T07:33:25.788Z,12.31
2022-10-08T07:35:53.480Z,12.42
2022-10-08T07:38:21.523Z,12.83
2022-10-08T07:40:51.392Z,13.28
2022-10-08T07:43:19.942Z,13.46
2022-10-08T07:45:51.058Z,13.58
2022-10-08T07:48:19.966Z,13.77
2022-10-08T07:50:49.266Z,13.99
2022-10-08T07:53:17.811Z,14.19
2022-10-08T07:55:45.543Z,14.24
2022-10-08T07:58:14.173Z,14.27
2022-10-08T08:00:42.384Z,14.39
2022-10-08T08:03:14.325Z,14.57
2022-10-08T08:05:42.302Z,14.74
2022-10-08T08:08:12.089Z,14.98
2022-10-08T08:11:07.479Z,15.15
2022-10-08T10:11:02.156Z,20.59
2022-10-08T10:13:35.291Z,20.78
2022-10-08T10:16:06.654Z,20.91
2022-10-08T10:18:52.562Z,21.07
2022-10-08T10:21:26.332Z,21.48
2022-10-08T10:24:06.229Z,21.96
2022-10-08T10:26:38.190Z,21.65
2022-10-08T10:29:13.513Z,22.13
2022-10-08T10:31:47.372Z,21.89
2022-10-08T10:34:21.334Z,21.56
2022-10-08T10:36:54.128Z,22.34
2022-10-08T10:39:31.398Z,22.33
2022-10-08T10:42:10.872Z,21.88
2022-10-08T10:44:52.112Z,21.96
2022-10-08T10:47:23.021Z,22.32
2022-10-08T10:49:52.315Z,22.37
2022-10-08T10:52:38.477Z,23.09
2022-10-08T10:55:21.756Z,23.19
2022-10-08T10:58:14.646Z,22.14
2022-10-08T11:00:52.147Z,22.34
2022-10-08T11:03:26.843Z,22.25
2022-10-08T11:06:04.155Z,22.26
2022-10-08T11:08:40.337Z,22.42
2022-10-08T11:11:21.140Z,22.73
2022-10-08T11:14:03.448Z,23.21
2022-10-08T11:16:46.183Z,23.51
2022-10-08T11:19:27.401Z,24.02
2022-10-08T11:22:04.849Z,24.32
2022-10-08T11:24:49.468Z,24.63
2022-10-08T11:27:28.014Z,24.66
2022-10-08T11:30:04.199Z,24.60
2022-10-08T11:32:33.101Z,24.66
2022-10-08T11:35:24.665Z,24.06
2022-10-08T11:38:02.593Z,23.53
2022-10-08T11:40:38.265Z,23.59
2022-10-08T11:43:12.917Z,22.68
2022-10-08T11:45:46.045Z,23.14
2022-10-08T11:48:34.751Z,23.89
2022-10-08T11:51:40.037Z,24.01
2022-10-08T11:54:15.813Z,23.89
2022-10-08T11:56:46.824Z,23.87
2022-10-08T11:59:33.420Z,23.55
2022-10-08T12:02:05.358Z,22.71
2022-10-08T12:04:36.546Z,22.48
2022-10-08T12:07:16.802Z,22.49
2022-10-08T12:10:03.285Z,22.71
2022-10-08T12:13:04.553Z,22.35
2022-10-08T12:15:53.371Z,22.36
2022-10-08T12:18:42.598Z,22.42
2022-10-08T12:21:56.605Z,22.90
2022-10-08T12:24:55.201Z,23.17
2022-10-08T12:27:32.174Z,22.81
2022-10-08T12:30:03.200Z,22.77
2022-10-08T12:32:33.952Z,22.95
2022-10-08T12:35:03.301Z,22.45
2022-10-08T12:37:45.836Z,21.96
2022-10-08T12:40:26.625Z,21.75
2022-10-08T12:43:08.986Z,21.76
2022-10-08T12:45:48.913Z,21.41
2022-10-08T12:48:29.370Z,21.32
2022-10-08T12:51:07.630Z,21.39
2022-10-08T12:53:35.458Z,20.94
2022-10-08T12:56:04.129Z,21.20
2022-10-08T12:58:36.793Z,21.25
2022-10-08T13:01:06.773Z,21.12
2022-10-08T13:03:34.826Z,20.94
2022-10-08T13:06:18.864Z,20.67
2022-10-08T13:08:50.128Z,20.45
2022-10-08T13:11:17.912Z,20.14
2022-10-08T13:13:49.380Z,19.82
2022-10-08T13:16:20.468Z,19.73
2022-10-08T13:18:49.956Z,19.49
2022-10-08T13:21:34.130Z,19.43
2022-10-08T13:24:04.180Z,19.48
2022-10-08T13:26:43.493Z,19.23
2022-10-08T13:29:36.628Z,19.12
2022-10-08T13:32:15.022Z,18.96
2022-10-08T13:34:46.271Z,19.20
2022-10-08T13:37:24.473Z,19.32
2022-10-08T13:39:54.116Z,19.30
2022-10-08T13:42:24.630Z,19.39
2022-10-08T13:44:53.385Z,19.41
2022-10-08T13:47:23.347Z,19.39
2022-10-08T13:49:51.606Z,19.34
2022-10-08T13:52:22.990Z,19.39
2022-10-08T13:54:54.229Z,19.36
2022-10-08T13:57:22.223Z,19.45
2022-10-08T13:59:49.997Z,19.47
2022-10-08T14:02:18.140Z,19.41
2022-10-08T14:04:46.227Z,19.21
2022-10-08T14:07:23.194Z,19.23
2022-10-08T14:09:52.295Z,19.11
2022-10-08T14:12:26.197Z,19.30
2022-10-08T14:14:54.566Z,19.51
2022-10-08T14:17:22.318Z,19.67
2022-10-08T14:19:51.006Z,19.78
2022-10-08T14:22:19.148Z,19.85
2022-10-08T14:24:48.326Z,19.75
2022-10-08T14:27:16.334Z,19.69
2022-10-08T14:29:44.402Z,19.72
2022-10-08T14:32:12.741Z,19.89
2022-10-08T14:34:40.507Z,20.02
2022-10-08T14:37:08.597Z,19.99
2022-10-08T14:39:36.674Z,19.63
2022-10-08T14:42:05.929Z,19.85
2022-10-08T14:44:33.985Z,20.12
2022-10-08T14:47:01.717Z,20.15
2022-10-08T14:49:29.506Z,20.15
2022-10-08T14:51:57.490Z,20.10
2022-10-08T14:54:25.946Z,20.11
2022-10-08T14:56:53.777Z,19.82
2022-10-08T14:59:23.254Z,19.81
2022-10-08T15:01:51.011Z,19.63
2022-10-08T15:04:18.901Z,19.33
2022-10-08T15:06:47.462Z,19.12
2022-10-08T15:09:16.696Z,18.90
2022-10-08T15:11:44.702Z,18.75
2022-10-08T15:14:14.300Z,18.51
2022-10-08T15:16:43.650Z,18.27
2022-10-08T15:19:11.610Z,18.23
2022-10-08T15:21:40.065Z,18.10
2022-10-08T15:24:07.991Z,18.01
2022-10-08T15:26:35.913Z,18.05
2022-10-08T15:29:04.604Z,17.73
2022-10-08T15:31:32.446Z,17.65
2022-10-08T15:34:01.819Z,17.53
2022-10-08T15:36:31.866Z,17.47
2022-10-08T15:39:01.751Z,17.42
2022-10-08T15:41:31.831Z,17.29
2022-10-08T15:44:09.130Z,17.25
2022-10-08T15:46:37.592Z,17.27
2022-10-08T15:49:07.173Z,17.23
2022-10-08T15:51:35.311Z,17.18
2022-10-08T15:54:03.866Z,16.96
2022-10-08T15:56:32.416Z,16.94
2022-10-08T15:59:00.263Z,16.91
2022-10-08T16:01:29.543Z,16.68
2022-10-08T16:03:58.841Z,16.76
2022-10-08T16:06:30.152Z,16.81
2022-10-08T16:08:58.759Z,16.74
2022-10-08T16:11:28.708Z,16.73
2022-10-08T16:14:00.492Z,16.64
2022-10-08T16:16:28.738Z,16.63
2022-10-08T16:18:58.753Z,16.57
2022-10-08T16:21:29.115Z,16.26
2022-10-08T16:23:58.144Z,16.21
2022-10-08T16:26:28.849Z,16.23
2022-10-08T16:28:59.577Z,16.08
2022-10-08T16:31:30.138Z,15.92
2022-10-08T16:37:11.556Z,16.00
2022-10-08T16:39:39.553Z,15.86
2022-10-08T16:42:07.505Z,15.90
2022-10-08T16:44:35.269Z,15.94
2022-10-08T16:47:03.182Z,15.90
2022-10-08T16:49:31.379Z,15.90
2022-10-08T16:52:04.430Z,15.68
2022-10-08T16:54:33.848Z,15.67
2022-10-08T16:57:01.943Z,15.65
2022-10-08T16:59:30.923Z,15.55
2022-10-08T17:02:00.473Z,15.48
2022-10-08T17:04:30.093Z,15.46
2022-10-08T17:06:57.902Z,15.41
2022-10-08T17:09:25.945Z,15.33
2022-10-08T17:12:11.957Z,15.23
2022-10-08T17:14:40.072Z,15.15
2022-10-08T17:17:07.852Z,15.07
2022-10-08T17:22:53.937Z,15.14
2022-10-08T17:25:21.601Z,15.14
2022-10-08T17:28:09.426Z,15.06
2022-10-08T17:33:35.934Z,14.82
2022-10-08T17:36:06.678Z,14.88
2022-10-08T17:38:35.105Z,14.90
2022-10-08T17:41:11.113Z,14.92
2022-10-08T17:43:56.681Z,14.95
2022-10-08T17:46:26.367Z,14.97
2022-10-08T17:48:54.901Z,14.98
2022-10-08T17:51:24.854Z,14.96
2022-10-08T17:53:54.025Z,14.86
2022-10-08T17:56:22.450Z,14.69
2022-10-08T17:58:51.336Z,14.45
2022-10-08T18:01:22.899Z,14.39
2022-10-08T18:03:52.542Z,14.44
2022-10-08T18:09:37.634Z,14.33
2022-10-08T18:12:05.638Z,14.26
2022-10-08T18:14:33.510Z,14.16
2022-10-08T18:17:02.898Z,14.13
2022-10-08T18:19:31.039Z,14.13
2022-10-08T18:21:58.888Z,14.17
2022-10-08T18:24:27.081Z,14.24
2022-10-08T18:26:55.038Z,14.12
2022-10-08T18:29:22.969Z,14.13
2022-10-08T18:31:51.102Z,14.14
2022-10-08T18:34:20.509Z,14.06
2022-10-08T18:36:48.549Z,14.03
2022-10-08T18:39:21.467Z,13.94
2022-10-08T18:41:52.381Z,13.86
2022-10-08T18:44:23.834Z,13.88
2022-10-08T18:46:52.411Z,13.77
2022-10-08T18:49:29.404Z,13.67
2022-10-08T18:51:58.336Z,13.67
2022-10-08T18:54:26.342Z,13.71
2022-10-08T18:56:55.326Z,13.67
2022-10-08T18:59:24.125Z,13.59
2022-10-08T19:01:55.639Z,13.57
2022-10-08T19:04:28.009Z,13.52
2022-10-08T19:06:55.958Z,13.43
2022-10-08T19:09:23.786Z,13.40
2022-10-08T19:11:54.432Z,13.50
2022-10-08T19:14:23.436Z,13.36
2022-10-08T19:16:51.515Z,13.32
2022-10-08T19:19:22.364Z,13.28
2022-10-08T19:21:52.924Z,13.27
2022-10-08T19:24:22.563Z,13.22
2022-10-08T19:26:51.003Z,13.24
2022-10-08T19:29:20.945Z,13.28
2022-10-08T19:31:50.374Z,13.27
2022-10-08T19:34:19.762Z,13.32
2022-10-08T19:36:48.094Z,13.30
2022-10-08T19:39:19.670Z,13.33
2022-10-08T19:41:47.872Z,13.39
2022-10-08T19:44:16.504Z,13.35
2022-10-08T19:46:45.345Z,13.37
2022-10-08T19:49:13.873Z,13.41
2022-10-08T19:51:42.236Z,13.24
2022-10-08T19:54:10.941Z,13.20
2022-10-08T19:56:40.117Z,13.20
2022-10-08T19:59:08.175Z,13.06
2022-10-08T20:01:39.167Z,13.20
2022-10-08T20:04:09.021Z,13.12
2022-10-08T20:06:39.752Z,13.22
2022-10-08T20:09:11.804Z,13.19
2022-10-08T20:11:41.403Z,13.17
2022-10-08T20:14:09.822Z,13.23
2022-10-08T20:16:40.172Z,13.20
2022-10-08T20:19:14.323Z,13.26
2022-10-08T20:21:42.169Z,13.14
2022-10-08T20:24:10.445Z,13.06
2022-10-08T20:26:39.903Z,13.09
2022-10-08T20:29:10.729Z,13.11
2022-10-08T20:31:40.978Z,13.07
2022-10-08T20:34:12.433Z,13.09
2022-10-08T20:36:41.073Z,13.01
2022-10-08T20:39:09.223Z,12.96
2022-10-08T20:41:37.465Z,12.85
2022-10-08T20:44:06.277Z,12.95
2022-10-08T20:46:36.764Z,12.97
2022-10-08T20:49:05.826Z,12.83
2022-10-08T20:51:34.798Z,12.81
2022-10-08T20:54:04.689Z,12.84
2022-10-08T20:56:39.601Z,12.80
2022-10-08T20:59:08.692Z,12.87
2022-10-08T21:01:39.463Z,12.82
2022-10-08T21:04:07.880Z,12.85
2022-10-08T21:06:37.924Z,12.93
2022-10-08T21:09:06.560Z,12.79
2022-10-08T21:11:35.371Z,12.93
2022-10-08T21:14:03.624Z,12.90
2022-10-08T21:16:35.142Z,12.92
2022-10-08T21:19:06.597Z,12.81
2022-10-08T21:21:36.276Z,12.92
2022-10-08T21:24:04.435Z,12.97
2022-10-08T21:26:33.605Z,12.97
2022-10-08T21:29:04.049Z,12.93
2022-10-08T21:31:33.909Z,13.06
2022-10-08T21:34:02.020Z,13.09
2022-10-08T21:36:33.626Z,13.10
2022-10-08T21:39:02.212Z,13.09
2022-10-08T21:41:32.253Z,13.12
2022-10-08T21:44:02.105Z,13.14
2022-10-08T21:46:32.296Z,13.16
2022-10-08T21:49:02.461Z,13.14
2022-10-08T21:51:34.348Z,13.10
2022-10-08T21:54:03.115Z,13.24
2022-10-08T21:56:32.471Z,13.26
2022-10-08T21:59:02.906Z,13.23
2022-10-08T22:01:34.549Z,13.28
2022-10-08T22:04:04.261Z,13.27
2022-10-08T22:06:35.909Z,13.14
2022-10-08T22:09:04.558Z,12.96
2022-10-08T22:11:32.897Z,12.98
2022-10-08T22:14:01.004Z,12.94
2022-10-08T22:16:29.563Z,13.00
2022-10-08T22:18:57.901Z,12.98
2022-10-08T22:21:26.237Z,13.07
2022-10-08T22:23:55.382Z,13.07
2022-10-08T22:26:27.709Z,13.03
2022-10-08T22:28:55.778Z,13.02
2022-10-08T22:31:23.617Z,12.98
2022-10-08T22:33:51.389Z,12.99
2022-10-08T22:36:21.408Z,12.96
2022-10-08T22:38:49.602Z,13.03
2022-10-08T22:41:20.607Z,13.06
2022-10-08T22:43:48.908Z,13.06
2022-10-08T22:46:18.516Z,13.05
2022-10-08T22:48:46.876Z,13.02
2022-10-08T22:51:17.074Z,13.08
2022-10-08T22:53:45.360Z,12.97
2022-10-08T22:56:15.005Z,12.98
2022-10-08T22:58:44.255Z,13.02
2022-10-08T23:01:14.481Z,12.94
2022-10-08T23:03:42.354Z,12.90
2022-10-08T23:06:16.914Z,12.97
2022-10-08T23:08:45.652Z,12.92
2022-10-08T23:11:13.803Z,12.91
2022-10-08T23:13:45.393Z,12.94
2022-10-08T23:16:16.249Z,12.89
2022-10-08T23:18:45.857Z,12.89
2022-10-08T23:21:15.518Z,12.76
2022-10-08T23:23:44.680Z,12.82
2022-10-08T23:26:13.045Z,12.62
2022-10-08T23:28:41.363Z,12.81
2022-10-08T23:31:11.594Z,12.76
2022-10-08T23:33:43.633Z,12.86
2022-10-08T23:36:14.122Z,12.72
2022-10-08T23:38:42.724Z,12.75
2022-10-08T23:41:11.804Z,12.64
2022-10-08T23:43:41.407Z,12.61
2022-10-08T23:46:11.071Z,12.47
2022-10-08T23:48:41.306Z,12.66
2022-10-08T23:51:10.693Z,12.62
2022-10-08T23:53:39.486Z,12.59
2022-10-08T23:56:08.429Z,12.66
2022-10-08T23:58:36.806Z,12.60
